x

8452951 - Potter Cove, Prudence Island, Ri (ptcr1) Weather Station

12:30 - Mon 27th Apr 2015 All times are EDT. -4 hours from GMT.

  • Wind
    8mph, 13mph gusts
  • Ar Temp 57°f
  • Sea Pressure 1001.8mb
  • 8452951 - Potter Cove, Prudence Island, Ri
  • 8452951 - Potter Cove, Prudence Island, Ri

More Historic Weather Station data

Upgrade to MSW Pro to gain access to the past 30 days of data for over 8000 Wavebouys and Weather Stations around the globe.

Join Pro

Comparision Forecast

View Surf forecast
   
Seg 04/27 12:30 8 13 mph 1001.8mb 57f
12:24 7 13 mph 1001.8mb 58f
12:18 6 9 mph 1001.8mb 59f
12:12 3 7 mph 1001.9mb 59f
12:06 5 10 mph 1002mb 57f
12:00 5 11 mph 1002mb 58f
11:54 5 9 mph 1002mb 58f
11:48 9 15 mph 1002mb 56f
11:42 8 11 mph 1002.1mb 56f
11:36 7 13 mph 1002.2mb 56f
11:30 3 7 mph 1002.3mb 58f
11:24 5 11 mph 1002.3mb 58f
11:18 7 10 mph 1002.4mb 56f
11:12 6 11 mph 1002.4mb 56f
11:06 5 9 mph 1002.4mb 56f
11:00 5 8 mph 1002.5mb 56f
10:54 8 11 mph 1002.6mb 55f
10:48 8 13 mph 1002.6mb 55f
10:42 6 11 mph 1002.6mb 55f
10:36 8 11 mph 1002.6mb 54f
10:30 8 15 mph 1002.7mb 55f
10:24 7 13 mph 1002.7mb 55f
10:18 7 11 mph 1002.7mb 55f
10:12 7 13 mph 1002.7mb 54f
10:06 7 11 mph 1002.7mb 53f
10:00 6 9 mph 1002.7mb 54f
9:54 7 14 mph 1002.8mb 53f
9:48 7 10 mph 1002.8mb 53f
9:42 7 13 mph 1002.9mb 52f
9:36 8 17 mph 1002.9mb 52f
9:30 7 10 mph 1002.9mb 52f
9:24 7 10 mph 1002.9mb 52f
9:18 8 14 mph 1003mb 52f
9:12 7 10 mph 1003mb 52f
9:06 8 13 mph 1003mb 52f
9:00 6 9 mph 1003mb 51f
8:54 9 14 mph 1003mb 51f
8:48 9 16 mph 1003mb 51f
8:42 10 15 mph 1003mb 51f
8:36 10 17 mph 1003mb 51f
8:30 9 13 mph 1003mb 51f
8:24 10 16 mph 1003mb 51f
8:18 9 14 mph 1003mb 51f
8:12 8 13 mph 1003mb 51f
8:06 9 15 mph 1003mb 51f
8:00 7 14 mph 1003mb 50f
7:54 6 11 mph 1003mb 50f
7:48 6 10 mph 1003.1mb 50f
7:42 3 9 mph 1003.1mb 50f
7:36 6 9 mph 1003.1mb 50f
7:30 6 10 mph 1003.1mb 50f
7:24 3 8 mph 1003.2mb 50f
7:18 2 5 mph 1003.1mb 50f
7:12 3 8 mph 1003.1mb 50f
7:06 6 10 mph 1003.1mb 49f
7:00 5 8 mph 1003.1mb 49f
6:54 2 6 mph 1003.1mb 49f
6:48 3 7 mph 1003mb 49f
6:42 3 8 mph 1003mb 49f
6:36 3 7 mph 1003mb 49f
6:30 3 7 mph 1002.9mb 49f
6:24 3 6 mph 1002.9mb 49f
6:18 5 9 mph 1002.9mb 49f
6:12 5 8 mph 1002.8mb 49f
6:06 5 8 mph 1002.8mb 49f
6:00 5 8 mph 1002.7mb 49f
5:54 5 8 mph 1002.7mb 49f
5:48 5 8 mph 1002.7mb 49f
5:42 5 8 mph 1002.6mb 49f
5:36 5 8 mph 1002.6mb 49f
5:30  -  mph 1002.6mb 49f
5:24  -  mph 1002.6mb 49f
5:18 5 7 mph 1002.6mb 49f
5:12 3 9 mph 1002.6mb 49f
5:06 5 9 mph 1002.5mb 49f
5:00 3 9 mph 1002.5mb 49f
4:54 3 7 mph 1002.6mb 49f
4:48 5 9 mph 1002.6mb 49f
4:42 3 7 mph 1002.6mb 49f
4:36 3 7 mph 1002.6mb 50f
4:30 5 7 mph 1002.7mb 50f
4:24 5 7 mph 1002.8mb 50f
4:18 5 9 mph 1002.8mb 50f
4:12 5 7 mph 1002.8mb 50f
4:06 3 9 mph 1002.9mb 50f
4:00 3 6 mph 1002.9mb 50f
3:54 2 6 mph 1002.9mb 50f
3:48 5 7 mph 1003mb 50f
3:42 3 7 mph 1003mb 50f
3:36 3 7 mph 1003mb 50f
3:30 3 6 mph 1003mb 50f
3:24 5 7 mph 1003mb 50f
3:18 5 8 mph 1003.1mb 50f
3:12 3 7 mph 1003.1mb 50f
3:06 3 7 mph 1003.1mb 50f
3:00 3 7 mph 1003.1mb 50f
2:54 3 7 mph 1003.1mb 50f
2:48 3 7 mph 1003.1mb 50f
2:42 3 7 mph 1003.1mb 50f
2:36 3 6 mph 1003.1mb 50f
2:30 3 7 mph 1003.1mb 50f
2:24 5 8 mph 1003.1mb 50f
2:18 3 7 mph 1003.2mb 49f
2:12 3 5 mph 1003.2mb 49f
2:06 2 3 mph 1003.3mb 50f
2:00 2 3 mph 1003.3mb 50f
1:54 1 3 mph 1003.3mb 50f
1:48 3 6 mph 1003.4mb 51f
1:42 3 5 mph 1003.4mb 50f
1:36 3 6 mph 1003.4mb 50f
1:30 3 6 mph 1003.4mb 50f
1:24 3 5 mph 1003.4mb 50f
1:18 2 3 mph 1003.4mb 50f
1:12 2 3 mph 1003.4mb 50f
1:06 2 3 mph 1003.4mb 50f
1:00 2 3 mph 1003.4mb 50f
12:54 2 3 mph 1003.4mb 50f
12:48 2 3 mph 1003.5mb 50f
12:42 2 5 mph 1003.4mb 49f
12:36 2
mph
1003.4mb 49f
12:30  -  2 mph 1003.4mb 49f
12:24 1 2 mph 1003.4mb 49f
12:18 1 2 mph 1003.3mb 49f
12:12 2
mph
1003.4mb 49f
12:06 2
mph
1003.3mb 49f
12:00 2
mph
1003.3mb 49f
Dom 04/26 11:54 1 2 mph 1003.3mb 48f
11:48 2
mph
1003.3mb 49f
11:42 2 3 mph 1003.3mb 49f
11:36 2 3 mph 1003.3mb 48f
11:30 2 3 mph 1003.3mb 48f
11:24 3
mph
1003.4mb 48f
11:18 3 5 mph 1003.4mb 49f
11:12 2
mph
1003.4mb 49f
11:06 3
mph
1003.4mb 49f
11:00 2 5 mph 1003.4mb 49f
10:54 3 5 mph 1003.4mb 48f
10:48 3 5 mph 1003.5mb 48f
10:42 3 6 mph 1003.5mb 48f
10:36 3 6 mph 1003.5mb 48f
10:30 3 5 mph 1003.6mb 48f
10:24 3 5 mph 1003.6mb 48f
10:18 5
mph
1003.6mb 48f
10:12 5 6 mph 1003.6mb 48f
10:06 3 6 mph 1003.7mb 48f
10:00 3 5 mph 1003.7mb 48f
9:54 5 6 mph 1003.7mb 48f
9:48 5 6 mph 1003.8mb 48f
9:42 3 6 mph 1003.8mb 48f
9:36 3 5 mph 1003.9mb 48f
9:30 5 6 mph 1003.9mb 48f
9:24 3 6 mph 1003.9mb 48f
9:18 5 6 mph 1003.9mb 48f
9:12 6 8 mph 1003.9mb 48f
9:06 6 7 mph 1003.9mb 48f
9:00 5 7 mph 1003.9mb 48f
8:54 6 7 mph 1003.9mb 48f
8:48 6 8 mph 1003.9mb 48f
8:42 6 8 mph 1003.9mb 48f
8:36 5 7 mph 1003.9mb 48f
8:30 5 7 mph 1003.9mb 49f
8:24 5 7 mph 1003.9mb 49f
8:18 6 8 mph 1003.9mb 49f
8:12 5 7 mph 1003.9mb 49f
8:06 6 8 mph 1003.9mb 49f
8:00 5 8 mph 1003.9mb 49f
7:54 5 7 mph 1003.9mb 49f
7:48 5 7 mph 1003.9mb 49f
7:42 3 7 mph 1003.9mb 49f
7:36 5 8 mph 1003.9mb 49f
7:30 6 8 mph 1003.9mb 49f
7:24 5 8 mph 1003.7mb 50f
7:18 6 9 mph 1003.7mb 50f
7:12 5 7 mph 1003.7mb 50f
7:06 5 7 mph 1003.7mb 50f
7:00 5 8 mph 1003.7mb 51f
6:54 5 8 mph 1003.7mb 51f
6:48 6 8 mph 1003.7mb 51f
6:42 6 9 mph 1003.6mb 51f
6:36 6 9 mph 1003.6mb 51f
6:30 6 8 mph 1003.6mb 51f
6:24 6 9 mph 1003.6mb 51f
6:18 5 8 mph 1003.6mb 52f
6:12 5 8 mph 1003.6mb 52f
6:06 5 8 mph 1003.7mb 52f
6:00 6 9 mph 1003.6mb 52f
5:54 5 8 mph 1003.6mb 53f
5:48  -  2 mph 1003.6mb 54f
5:42  -  1 mph 1003.6mb 54f
5:36 2
mph
1003.6mb 54f
5:30 1 2 mph 1003.6mb 54f
5:24 1 2 mph 1003.6mb 55f
5:18 2 3 mph 1003.6mb 54f
5:12 2 3 mph 1003.6mb 55f
5:06 2 3 mph 1003.6mb 55f
5:00 2
mph
1003.6mb 55f
4:54 2 3 mph 1003.6mb 54f
4:48 2 3 mph 1003.6mb 54f
4:42 5 6 mph 1003.7mb 54f
4:36  -  1 mph 1003.7mb 55f
4:30 2 5 mph 1003.7mb 56f
4:24 2 5 mph 1003.7mb 55f
4:18 3 5 mph 1003.8mb 56f
4:12 3 7 mph 1003.8mb 56f
4:06 5 6 mph 1003.8mb 55f
4:00 6 8 mph 1003.8mb 55f
3:54 6 9 mph 1003.7mb 54f
3:48 6 8 mph 1003.7mb 54f
3:42 6 8 mph 1003.8mb 54f
3:36 7 9 mph 1003.8mb 54f
3:30 8 9 mph 1003.8mb 54f
3:24 8 10 mph 1003.8mb 53f
3:18 8 9 mph 1003.8mb 54f
3:12 8 10 mph 1003.8mb 54f
3:06 9
mph
1003.8mb 54f
3:00 9 11 mph 1003.8mb 55f
2:54 8 10 mph 1003.9mb 55f
2:48 9 13 mph 1004mb 54f
2:42 7 10 mph 1004mb 54f
2:36 7 9 mph 1004mb 54f
2:30 8 11 mph 1004.1mb 54f
2:24 8 10 mph 1004.1mb 54f
2:18 8 9 mph 1004mb 54f
2:12 10 14 mph 1004mb 54f
2:06 10 13 mph 1004mb 54f
2:00 10 13 mph 1004mb 54f
1:54 9 11 mph 1004mb 54f
1:48 9 10 mph 1004mb 53f
1:42 9 10 mph 1004mb 54f
1:36 9 11 mph 1004mb 53f
1:30 9 11 mph 1004mb 54f
1:24 9 11 mph 1004mb 54f
1:18 8 10 mph 1004mb 54f
1:12 8 10 mph 1004mb 54f
1:06 8 13 mph 1004mb 55f
1:00 8 11 mph 1004mb 55f
12:54 3 7 mph 1004mb 55f
12:48 2 5 mph 1004mb 55f
12:42 3 7 mph 1004.1mb 55f
12:36 2 6 mph 1004.1mb 54f
12:30 3 6 mph 1004.2mb 53f
12:24 2 5 mph 1004.2mb 53f
12:18 3 6 mph 1004.3mb 54f
12:12 3 6 mph 1004.4mb 53f
12:06 2 3 mph 1004.5mb 53f
12:00 2 5 mph 1004.5mb 54f
11:54 3 6 mph 1004.5mb 54f
11:48 3 6 mph 1004.5mb 54f
11:42 5 7 mph 1004.5mb 56f
11:36 5 7 mph 1004.5mb 56f
11:30 5 8 mph 1004.6mb 54f
11:24 5 9 mph 1004.6mb 54f
11:18 6 8 mph 1004.7mb 53f
11:12 5 8 mph 1004.7mb 54f
11:06 5 7 mph 1004.8mb 54f
11:00 6 9 mph 1004.7mb 54f
10:54 5 7 mph 1004.8mb 54f
10:48 2 7 mph 1004.9mb 53f
10:42 2 3 mph 1004.9mb 52f
10:36 1 3 mph 1004.9mb 52f
10:30 2 3 mph 1005mb 51f
10:24 5
mph
1005mb 51f
10:18 3 6 mph 1005.1mb 52f
10:12 5 6 mph 1005.1mb 51f
10:06 5 6 mph 1005.1mb 51f
10:00 3 6 mph 1005.2mb 51f
9:54 5 7 mph 1005.2mb 51f
9:48 6 7 mph 1005.2mb 49f
9:42 5 7 mph 1005.3mb 51f
9:36 5 7 mph 1005.3mb 51f
9:30 3 7 mph 1005.3mb 51f
9:24 3 5 mph 1005.3mb 50f
9:18 5 6 mph 1005.3mb 49f
9:12 7
mph
1005.3mb 49f
9:06 7 8 mph 1005.4mb 49f
9:00 7 8 mph 1005.4mb 48f
8:54 6 7 mph 1005.4mb 49f
8:48 6 7 mph 1005.5mb 49f
8:42 5 6 mph 1005.5mb 49f
8:36 5 7 mph 1005.5mb 48f
8:30 5 6 mph 1005.5mb 49f
8:24 3 5 mph 1005.5mb 49f
8:18 3
mph
1005.6mb 48f
8:12 2 3 mph 1005.6mb 48f
8:06 2 3 mph 1005.7mb 49f
8:00  -  2 mph 1005.7mb 48f
7:54 1 3 mph 1005.7mb 49f
7:48  -  2 mph 1005.7mb 48f
7:42  -  3 mph 1005.7mb 47f
7:36 2 5 mph 1005.7mb 47f
7:30 2 5 mph 1005.8mb 47f
7:24 2 3 mph 1005.7mb 46f
7:18 1 5 mph 1005.8mb 46f
7:12 2 3 mph 1005.8mb 46f
7:06 2 5 mph 1005.9mb 45f
7:00 2 5 mph 1005.9mb 45f
6:54 2 3 mph 1005.9mb 45f
6:48 2 3 mph 1005.8mb 45f
6:42  -  2 mph 1005.8mb 45f
6:36 1 3 mph 1005.8mb 45f
6:30 2
mph
1005.8mb 45f
6:24 2 5 mph 1005.7mb 44f
6:18 3 5 mph 1005.7mb 45f
6:12 3 5 mph 1005.7mb 44f
6:06 3 5 mph 1005.7mb 44f
6:00 3 5 mph 1005.6mb 43f
5:54 3 5 mph 1005.6mb 43f
5:48 3 5 mph 1005.6mb 43f
5:42 5 6 mph 1005.4mb 44f
5:36 3 6 mph 1005.3mb 44f
5:30 6 7 mph 1005.1mb 44f
5:24 6 7 mph 1005mb 44f
5:18 6 7 mph 1005mb 44f
5:12 5 7 mph 1005.1mb 44f
5:06 6 7 mph 1005mb 44f
5:00 6 7 mph 1005mb 44f
4:54 6 7 mph 1005.1mb 44f
4:48 6 8 mph 1005.1mb 44f
4:42 6 8 mph 1005.1mb 44f
4:36 6 9 mph 1005.2mb 44f
4:30 6 7 mph 1005.2mb 44f
4:24 6 7 mph 1005.3mb 43f
4:18 5 8 mph 1005.3mb 43f
4:12 3 5 mph 1005.4mb 43f
4:06 3 7 mph 1005.3mb 42f
4:00 5 6 mph 1005.4mb 43f
3:54 3 6 mph 1005.4mb 43f
3:48 5 7 mph 1005.4mb 43f
3:42 6 8 mph 1005.4mb 44f
3:36 6 9 mph 1005.3mb 43f
3:30 5 7 mph 1005.5mb 44f
3:24 3 5 mph 1005.5mb 44f
3:18 8 10 mph 1005.5mb 45f
3:12 7 9 mph 1005.5mb 45f
3:06 7 10 mph 1005.5mb 45f
3:00 8 10 mph 1005.6mb 45f
2:54 8 10 mph 1005.6mb 45f
2:48 7 9 mph - 45f
2:42 7 8 mph - 45f
2:36 7 9 mph - 44f
2:30 5 6 mph 1005.9mb 43f
2:24 2 5 mph 1005.9mb 44f
2:18 6 7 mph 1006mb 45f
2:12 5 6 mph 1006.1mb 45f
2:06 6 7 mph 1006.1mb 45f
2:00 7 8 mph 1006.1mb 46f
1:54 7 9 mph 1006.2mb 46f
1:48 8 10 mph 1006.3mb 46f
1:42 8 9 mph 1006.3mb 46f
1:36 8 11 mph 1006.3mb 46f
1:30 6 8 mph 1006.3mb 46f
1:24 6 8 mph 1006.3mb 47f
1:18 7 9 mph 1006.4mb 46f
1:12 6 8 mph 1006.4mb 47f
1:06 6 8 mph 1006.4mb 47f
1:00 7 8 mph 1006.4mb 47f
12:54 7 9 mph 1006.4mb 47f
12:48 6 8 mph 1006.4mb 47f
12:42 7 8 mph 1006.5mb 47f
12:36 6 7 mph 1006.5mb 47f
12:30 6 7 mph 1006.5mb 47f
12:24 7 8 mph 1006.5mb 47f
12:18 7 9 mph 1006.5mb 47f
12:12 7 8 mph 1006.5mb 47f
12:06 7 8 mph 1006.6mb 47f
12:00 6 8 mph 1006.6mb 47f
Sáb 04/25 11:54 7 8 mph 1006.6mb 47f
11:48 7 9 mph 1006.7mb 47f
11:42 8 9 mph 1006.7mb 47f
11:36 6 8 mph 1006.7mb 47f
11:30 6 7 mph 1006.7mb 47f
11:24 7 8 mph 1006.5mb 48f
11:18 7 8 mph 1006.5mb 48f
11:12 7 8 mph 1006.6mb 48f
11:06 7 8 mph 1006.5mb 48f
11:00 6 8 mph 1006.6mb 47f
10:54 3 5 mph 1006.5mb 48f
10:48 5 6 mph 1006.5mb 48f
10:42 6 7 mph 1006.6mb 47f
10:36 3 5 mph 1006.6mb 46f
10:30 3
mph
1006.6mb 46f
10:24 2 3 mph 1006.6mb 47f
10:18 2 3 mph 1006.5mb 47f
10:12 3 5 mph 1006.5mb 47f
10:06 5 6 mph 1006.6mb 47f
10:00 5 6 mph 1006.6mb 47f
9:54 5 6 mph 1006.6mb 47f
9:48 3 5 mph 1006.6mb 47f
9:42 2 3 mph 1006.7mb 47f
9:36 5 6 mph 1006.7mb 47f
9:30 5 7 mph 1006.6mb 47f
9:24 6 9 mph 1006.5mb 47f
9:18 2 3 mph 1006.5mb 47f
9:12  -  2 mph 1006.3mb 48f
9:06 1 2 mph 1006.4mb 48f
9:00 1 2 mph 1006.4mb 48f
8:54  -  mph 1006.3mb 48f
8:48  -  1 mph 1006.3mb 48f
8:42 2 5 mph 1006.3mb 48f
8:36 2 5 mph 1006.2mb 48f
8:30 2 3 mph 1006.2mb 49f
8:24  -  2 mph 1006.2mb 49f
8:18 2
mph
1006.1mb 49f
8:12 2 3 mph 1006.1mb 49f
8:06 1 3 mph 1006mb 49f
8:00 2 3 mph 1005.9mb 49f
7:54 2 6 mph 1005.8mb 49f
7:48 5 7 mph 1005.8mb 50f
7:42 6 7 mph 1005.7mb 50f
7:36 8 15 mph 1005.6mb 51f
7:30 10 14 mph 1005.5mb 53f
7:24 10 13 mph 1005.5mb 52f
7:18 11 14 mph 1005.5mb 52f
7:12 10 14 mph 1005.4mb 53f
7:06 11 15 mph 1005.4mb 54f
7:00 10 13 mph 1005.4mb 54f
6:54 6 9 mph 1005.3mb 53f
6:48 1 3 mph 1005.3mb 51f
6:42 3 8 mph 1005.3mb 51f
6:36 2 6 mph 1005.3mb 52f
6:30 5 6 mph 1005.2mb 54f
6:24 1 3 mph 1005.3mb 52f
6:18 2 5 mph 1005.2mb 54f
6:12 8 10 mph 1005.1mb 54f
6:06 6 8 mph 1005.1mb 55f
6:00 7 9 mph 1005.1mb 55f
5:54 7 9 mph 1005mb 55f
5:48 7 10 mph 1005mb 55f
5:42 6 7 mph 1005.1mb 56f
5:36 6 9 mph 1005.1mb 56f
5:30 7 11 mph 1005mb 56f
5:24 5 9 mph 1005mb 56f
5:18 6 11 mph 1005mb 56f
5:12 5 9 mph 1005mb 57f
5:06 6 9 mph 1005mb 57f
5:00 7 11 mph 1005mb 57f
4:54 3 8 mph 1004.9mb 58f
4:48 7 11 mph 1004.9mb 57f
4:42 5 9 mph 1004.9mb 60f
4:36 5 9 mph 1004.9mb 58f
4:30 5 10 mph 1004.9mb 60f
4:24 8 16 mph 1004.9mb 58f
4:18 7 13 mph 1005mb 58f
4:12 5 8 mph 1004.9mb 59f
4:06 7 11 mph 1005mb 58f
4:00 9 16 mph 1005.1mb 59f
3:54 6 14 mph 1005.2mb 59f
3:48 6 13 mph 1005.3mb 59f
3:42 8 14 mph 1005.4mb 58f
3:36 7 13 mph 1005.4mb 58f
3:30 6 13 mph 1005.4mb 58f
3:24 7 13 mph 1005.5mb 57f
3:18 8 15 mph 1005.5mb 58f
3:12 6 9 mph 1005.5mb 59f
3:06 7 14 mph 1005.6mb 58f
3:00 8 13 mph 1005.6mb 59f
2:54 8 16 mph 1005.6mb 58f
2:48 10 16 mph 1005.7mb 57f
2:42 7 11 mph 1005.7mb 57f
2:36 7 16 mph 1005.8mb 58f
2:30 7 15 mph 1005.9mb 57f
2:24 7 14 mph 1005.9mb 57f
2:18 8 11 mph 1006mb 57f
2:12 8 13 mph 1006mb 57f
2:06 8 14 mph 1006.1mb 56f
2:00 7 13 mph 1006.2mb 58f
1:54 8 14 mph 1006.4mb 57f
1:48 5 14 mph 1006.4mb 56f
1:42 7 14 mph 1006.5mb 53f
1:36 7 13 mph 1006.5mb 55f
1:30 6 11 mph 1006.7mb 56f
1:24 7 11 mph 1006.8mb 51f
1:18 6 9 mph 1006.7mb 55f
1:12 8 16 mph 1006.9mb 55f
1:06 9 14 mph 1006.9mb 54f
1:00 8 13 mph 1007mb 55f
12:54 7 15 mph 1007.2mb 55f
12:48 8 16 mph 1007.1mb 55f
12:42 6 13 mph 1007.1mb 54f
12:36 6 11 mph 1007.3mb 53f
12:30 9 15 mph 1007.3mb 53f
12:24 6 10 mph 1007.4mb 54f
12:18 7 11 mph 1007.4mb 52f
12:12 7 14 mph 1007.6mb 52f
12:06 6 10 mph 1007.7mb 52f
12:00 5 9 mph 1007.8mb 52f
11:54 7 11 mph 1007.9mb 52f
11:48 7 11 mph 1007.9mb 52f
11:42 9 13 mph 1007.9mb 50f
11:36 8 13 mph 1008mb 50f
11:30 6 10 mph 1008mb 50f
11:24 7 10 mph 1008mb 50f
11:18 6 10 mph 1008.1mb 49f
11:12 5 10 mph 1008.1mb 50f
11:06 5 8 mph 1008.2mb 50f
11:00 2 6 mph 1008.2mb 49f
10:54 6 10 mph 1008.4mb 47f
10:48 6 10 mph 1008.5mb 48f
10:42 5 9 mph 1008.5mb 47f
10:36 7 10 mph 1008.6mb 46f
10:30 8 14 mph 1008.6mb 46f
10:24 7 11 mph 1008.7mb 47f
10:18 8 14 mph 1008.8mb 46f
10:12 6 13 mph 1008.9mb 45f
10:06 8 16 mph 1009mb 46f
10:00 6 10 mph 1009mb 46f
9:54 6 11 mph 1009mb 45f
9:48 8 16 mph 1009.1mb 45f
9:42 7 15 mph 1009.1mb 44f
9:36 6 14 mph 1009mb 44f
9:30 5 9 mph 1009mb 44f
9:24 8 13 mph 1009.1mb 43f
9:18 9 16 mph 1009.2mb 43f
9:12 5 11 mph 1009.3mb 44f
9:06 7 13 mph 1009.5mb 43f
9:00 7 13 mph 1009.5mb 42f
8:54 7 11 mph 1009.6mb 42f
8:48 7 14 mph 1009.7mb 42f
8:42 7 13 mph 1009.9mb 41f
8:36 9 17 mph 1009.9mb 41f
8:30 7 13 mph 1009.9mb 41f
8:24 8 14 mph 1009.9mb 40f
8:18 7 10 mph 1010mb 40f
8:12 7 14 mph 1010.1mb 40f
8:06 7 10 mph 1010.2mb 40f
8:00 9 15 mph 1010.3mb 39f
7:54 9 16 mph 1010.4mb 39f
7:48 7 14 mph 1010.3mb 39f
7:42 7 11 mph 1010.3mb 38f
7:36 8 14 mph 1010.3mb 38f
7:30 9 15 mph 1010.3mb 37f
7:24 10 16 mph 1010.3mb 37f
7:18 7 13 mph 1010.3mb 37f
7:12 7 11 mph 1010.4mb 36f
7:06 6 11 mph 1010.4mb 37f
7:00 8 11 mph 1010.4mb 36f
6:54 8 15 mph 1010.4mb 36f
6:48 8 15 mph 1010.4mb 35f
6:42 9 15 mph 1010.4mb 35f
6:36 7 11 mph 1010.5mb 35f
6:30 8 15 mph 1010.4mb 35f
6:24 8 14 mph 1010.3mb 35f
6:18 9 14 mph 1010.3mb 35f
6:12 8 13 mph 1010.1mb 34f
6:06 9 14 mph 1010.1mb 34f
6:00 9 14 mph 1010.1mb 34f
5:54 10 16 mph 1010mb 34f
5:48 9 15 mph 1010mb 35f
5:42 8 11 mph 1009.9mb 35f
5:36 8 13 mph 1009.8mb 35f
5:30 9 16 mph 1009.8mb 35f
5:24 7 11 mph 1009.7mb 35f
5:18 8 13 mph 1009.7mb 35f
5:12 7 11 mph 1009.6mb 35f
5:06 8 14 mph 1009.6mb 35f
5:00 8 13 mph 1009.6mb 35f
4:54 7 15 mph 1009.5mb 35f
4:48 8 14 mph 1009.5mb 35f
4:42 7 11 mph 1009.4mb 35f
4:36 8 11 mph 1009.3mb 35f
4:30 7 11 mph 1009.4mb 35f
4:24 7 11 mph 1009.4mb 35f
4:18 7 11 mph 1009.5mb 35f
4:12 9 14 mph 1009.5mb 35f
4:06 8 13 mph 1009.5mb 35f
4:00 6 10 mph 1009.5mb 35f
3:54 7 11 mph 1009.6mb 35f
3:48 7 11 mph 1009.6mb 35f
3:42 6 11 mph 1009.7mb 35f
3:36 7 13 mph 1009.8mb 36f
3:30 7 14 mph 1009.7mb 36f
3:24 7 11 mph 1009.7mb 36f
3:18 7 11 mph 1009.7mb 36f
3:12 7 11 mph 1009.8mb 36f
3:06 6 10 mph 1009.7mb 36f
3:00 7 11 mph 1009.8mb 36f
2:54 9 14 mph 1009.8mb 36f
2:48 7 13 mph 1009.8mb 36f
2:42 6 10 mph 1009.7mb 36f
2:36 6 8 mph 1009.7mb 37f
2:30 7 9 mph 1009.7mb 37f
2:24 6 10 mph 1009.7mb 37f
2:18 7 9 mph 1009.7mb 37f
2:12 8 15 mph 1009.7mb 37f
2:06 7 13 mph 1009.6mb 37f
2:00 7 13 mph 1009.6mb 37f
1:54 8 13 mph 1009.7mb 37f
1:48 8 13 mph 1009.7mb 37f
1:42 8 13 mph 1009.7mb 38f
1:36 8 14 mph 1009.8mb 38f
1:30 8 13 mph 1009.8mb 38f
1:24 7 13 mph 1009.8mb 38f
1:18 7 13 mph 1009.8mb 38f
1:12 7 14 mph 1009.9mb 38f
1:06 8 15 mph 1010mb 39f
1:00 9 17 mph 1010.1mb 38f
12:54 7 16 mph 1010.1mb 39f
12:48 9 16 mph 1010.1mb 39f
12:42 6 14 mph 1010mb 39f
12:36 7 17 mph 1010mb 39f
12:30 9 17 mph 1010mb 39f
12:24 8 15 mph 1010.1mb 39f
12:18 9 17 mph 1010.1mb 39f
12:12 9 16 mph 1010.2mb 39f
12:06 9 16 mph 1010.2mb 39f
12:00 7 14 mph 1010.2mb 39f
Sex 04/24 11:54 11 23 mph 1010.2mb 39f
11:48 8 16 mph 1010.2mb 39f
11:42 8 18 mph 1010.1mb 39f
11:36 9 20 mph 1010mb 39f
11:30 7 15 mph 1010mb 40f
11:24 10 18 mph 1010mb 40f
11:18 9 22 mph 1010.1mb 40f
11:12 10 22 mph 1010.2mb 40f
11:06 8 16 mph 1010.2mb 40f
11:00 7 14 mph 1010.2mb 40f
10:54 9 16 mph 1010.3mb 40f
10:48 9 22 mph 1010.3mb 40f
10:42 6 14 mph 1010.4mb 40f
10:36 8 18 mph 1010.4mb 40f
10:30 8 16 mph 1010.4mb 40f
10:24 10 20 mph 1010.4mb 41f
10:18 8 18 mph 1010.3mb 40f
10:12 8 16 mph 1010.3mb 40f
10:06 10 20 mph 1010.2mb 41f
10:00 9 18 mph 1010.2mb 41f
9:54 10 16 mph 1010.3mb 41f
9:48 9 17 mph 1010.2mb 41f
9:42 9 16 mph 1010.1mb 41f
9:36 8 14 mph 1010mb 41f
9:30 8 22 mph 1009.9mb 41f
9:24 10 21 mph 1009.9mb 41f
9:18 9 18 mph 1009.9mb 42f
9:12 9 17 mph 1009.9mb 42f
9:06 10 17 mph 1009.9mb 42f
9:00 11 20 mph 1009.8mb 42f
8:54 10 20 mph 1009.7mb 42f
8:48 7 15 mph 1009.6mb 42f
8:42 9 20 mph 1009.6mb 42f
8:36 10 20 mph 1009.5mb 42f
8:30 9 18 mph 1009.6mb 42f
8:24 8 17 mph 1009.5mb 42f
8:18 10 20 mph 1009.4mb 43f
8:12 8 18 mph 1009.4mb 43f
8:06 9 18 mph 1009.3mb 43f
8:00 8 17 mph 1009.2mb 43f
7:54 9 21 mph 1009.1mb 43f
7:48 13 20 mph 1009mb 44f
7:42 9 16 mph 1009mb 44f
7:36 8 16 mph 1009mb 44f
7:30 6 13 mph 1008.9mb 44f
7:24 8 14 mph 1008.8mb 44f
7:18 10 23 mph 1008.7mb 44f
7:12 9 22 mph 1008.6mb 44f
7:06 11 22 mph 1008.5mb 44f
7:00 10 17 mph 1008.4mb 44f
6:54 11 21 mph 1008.4mb 44f
6:48 11 22 mph 1008.3mb 44f
6:42 11 23 mph 1008.2mb 45f
6:36 14 23 mph 1008.1mb 45f
6:30 11 21 mph 1008.1mb 46f
6:24 13 24 mph 1008mb 46f
6:18 11 22 mph 1008mb 46f
6:12 13 22 mph 1007.8mb 46f
6:06 8 17 mph 1007.8mb 47f
6:00 13 22 mph 1007.8mb 46f
5:54 10 20 mph 1007.8mb 46f
5:48 13 21 mph 1007.8mb 46f
5:42 9 18 mph 1007.7mb 47f
5:36 9 18 mph 1007.6mb 47f
5:30 9 20 mph 1007.5mb 47f
5:24 7 16 mph 1007.5mb 47f
5:18 9 20 mph 1007.5mb 47f
5:12 11 16 mph 1007.4mb 47f
5:06 11 18 mph 1007.3mb 47f
5:00 11 22 mph 1007.3mb 47f
4:54 10 20 mph 1007.3mb 48f
4:48 9 17 mph 1007.3mb 48f
4:42 8 16 mph 1007.2mb 47f
4:36 8 20 mph 1007.1mb 48f
4:30 7 14 mph 1007.1mb 49f
4:24 7 13 mph 1007.1mb 50f
4:18 10 18 mph 1007mb 50f
4:12 8 15 mph 1006.9mb 50f
4:06 13 20 mph 1006.9mb 49f
4:00 10 18 mph 1006.8mb 48f
3:54 9 16 mph 1006.8mb 49f
3:48 9 17 mph 1006.7mb 50f
3:42 8 17 mph 1006.8mb 48f
3:36 10 18 mph 1006.8mb 49f
3:30 6 14 mph 1006.7mb 50f
3:24 9 16 mph 1006.6mb 51f
3:18 9 17 mph 1006.6mb 50f
3:12 8 15 mph 1006.5mb 51f
3:06 9 15 mph 1006.6mb 50f
3:00 9 16 mph 1006.6mb 51f
2:54 7 14 mph 1006.7mb 51f
2:48 8 14 mph 1006.7mb 50f
2:42 9 16 mph 1006.8mb 51f
2:36 9 16 mph 1006.8mb 50f
2:30 9 16 mph 1006.9mb 50f
2:24 7 14 mph 1006.9mb 50f
2:18 8 13 mph 1006.9mb 50f
2:12 5 11 mph 1007mb 51f
2:06 8 16 mph 1007mb 50f
2:00 9 15 mph 1007.1mb 49f
1:54 8 16 mph 1007.1mb 51f
1:48 9 15 mph 1007.1mb 49f
1:42 8 16 mph 1007.1mb 49f
1:36 7 15 mph 1007.2mb 50f
1:30 9 17 mph 1007.1mb 49f
1:24 8 18 mph 1007.2mb 48f
1:18 9 18 mph 1007.2mb 50f
1:12 9 16 mph 1007.3mb 49f
1:06 7 18 mph 1007.3mb 50f
1:00 9 16 mph 1007.3mb 50f
12:54 9 15 mph 1007.4mb 49f
12:48 7 18 mph 1007.4mb 48f
12:42 9 17 mph 1007.4mb 49f
12:36 9 17 mph 1007.4mb 48f
12:30 10 17 mph 1007.4mb 48f
12:24 7 14 mph 1007.5mb 49f
12:18 9 18 mph 1007.5mb 48f
12:12 9 15 mph 1007.5mb 47f
12:06 11 20 mph 1007.6mb 47f
12:00 7 15 mph 1007.6mb 47f
11:54 8 18 mph 1007.7mb 48f
11:48 10 17 mph 1007.7mb 47f
11:42 9 16 mph 1007.7mb 47f
11:36 9 17 mph 1007.7mb 48f
11:30 10 18 mph 1007.8mb 46f
11:24 10 18 mph 1007.9mb 47f
11:18 10 20 mph 1007.8mb 46f
11:12 8 15 mph 1007.9mb 47f
11:06 8 18 mph 1007.9mb 47f
11:00 10 18 mph 1007.9mb 46f
10:54 10 18 mph 1007.9mb 46f
10:48 11 17 mph 1008mb 45f
10:42 9 17 mph 1008mb 45f
10:36 9 15 mph 1008.1mb 43f
10:30 9 16 mph 1008.1mb 43f
10:24 8 14 mph 1008.1mb 44f
10:18 6 10 mph 1008.1mb 44f
10:12 9 17 mph 1008.2mb 43f
10:06 9 15 mph 1008.2mb 43f
10:00 9 20 mph 1008.2mb 42f
9:54 9 17 mph 1008.2mb 42f
9:48 7 14 mph 1008.3mb 42f
9:42 6 15 mph 1008.4mb 42f
9:36 5 13 mph 1008.4mb 41f
9:30 7 17 mph 1008.5mb 40f
9:24 8 15 mph 1008.5mb 40f
9:18 8 16 mph 1008.5mb 40f
9:12 6 16 mph 1008.5mb 40f
9:06 8 16 mph 1008.5mb 40f
9:00 7 16 mph 1008.5mb 40f
8:54 10 20 mph 1008.5mb 40f
8:48 10 21 mph 1008.4mb 40f
8:42 8 18 mph 1008.4mb 39f
8:36 8 15 mph 1008.5mb 39f
8:30 7 15 mph 1008.5mb 39f
8:24 9 17 mph 1008.5mb 39f
8:18 9 21 mph 1008.5mb 39f
8:12 10 21 mph 1008.5mb 39f
8:06 10 21 mph 1008.4mb 39f
8:00 7 13 mph 1008.4mb 39f
7:54 9 18 mph 1008.4mb 39f
7:48 13 24 mph 1008.4mb 39f
7:42 8 16 mph 1008.4mb 39f
7:36 9 18 mph 1008.4mb 39f
7:30 9 20 mph 1008.3mb 39f
7:24 8 17 mph 1008.3mb 38f
7:18 9 16 mph 1008.2mb 38f
7:12 8 17 mph 1008.2mb 38f
7:06 7 15 mph 1008.2mb 38f
7:00 10 18 mph 1008.1mb 38f
6:54 7 14 mph 1008.1mb 39f
6:48 9 17 mph 1008mb 38f
6:42 9 17 mph 1008mb 38f
6:36 8 18 mph 1008mb 38f
6:30 7 14 mph 1007.9mb 38f
6:24 11 21 mph 1007.9mb 38f
6:18 8 18 mph 1007.8mb 37f
6:12 9 16 mph 1007.8mb 37f
6:06 10 21 mph 1007.7mb 37f
6:00 9 16 mph 1007.7mb 37f
5:54 8 15 mph 1007.7mb 37f
5:48 8 16 mph - 37f
5:42 9 18 mph - 37f
5:36 7 15 mph - 37f
5:30 10 21 mph - -
5:24 9 15 mph - -
5:18 10 17 mph - 38f
5:12 9 18 mph - 38f
5:06 10 18 mph - 38f
5:00 9 18 mph 1007.3mb 38f
4:54 13 22 mph 1007.3mb 38f
4:48 11 21 mph 1007.3mb 38f
4:42 11 17 mph 1007.2mb 38f
4:36 9 18 mph 1007.3mb 38f
4:30 10 18 mph 1007.3mb 38f
4:24 9 16 mph 1007.3mb 38f
4:18 11 17 mph 1007.3mb 38f
4:12 9 17 mph 1007.3mb 38f
4:06 10 17 mph 1007.3mb 38f
4:00 13 20 mph 1007.3mb 38f
3:54 10 18 mph 1007.3mb 38f
3:48 9 15 mph 1007.3mb 38f
3:42 8 15 mph 1007.2mb 38f
3:36 10 18 mph 1007.2mb 38f
3:30 10 21 mph 1007.2mb 38f
3:24 11 20 mph 1007.2mb 38f
3:18 11 22 mph 1007.2mb 38f
3:12 11 21 mph 1007.1mb 38f
3:06 10 21 mph 1007.1mb 38f
3:00 11 16 mph 1007.1mb 38f
2:54 8 16 mph 1007mb 38f
2:48 9 17 mph 1007mb 38f
2:42 9 17 mph 1007mb 38f
2:36 9 17 mph 1007mb 38f
2:30 9 17 mph 1007mb 38f
2:24 9 18 mph 1007.1mb 38f
2:18 8 16 mph 1007.2mb 38f
2:12 10 18 mph 1007.1mb 38f
2:06 10 18 mph 1007.1mb 38f
2:00 8 15 mph 1007mb 38f
1:54 10 21 mph 1007mb 38f
1:48 10 20 mph 1007mb 39f
1:42 9 18 mph 1007mb 39f
1:36 9 20 mph 1007.1mb 39f
1:30 8 18 mph 1007.1mb 39f
1:24 9 16 mph 1007.2mb 39f
1:18 9 16 mph 1007.2mb 38f
1:12 6 11 mph 1007.3mb 38f
1:06 10 18 mph 1007.2mb 38f
1:00 7 14 mph 1007.3mb 38f
12:54 8 14 mph 1007.3mb 38f
12:48 9 14 mph 1007.3mb 38f
12:42 6 10 mph 1007.4mb 38f
12:36 8 18 mph 1007.4mb 38f
12:30 10 18 mph 1007.4mb 38f
12:24 9 16 mph 1007.4mb 39f
12:18 8 13 mph 1007.4mb 39f
12:12 9 17 mph 1007.4mb 39f
12:06 13 21 mph 1007.3mb 39f
12:00 9 17 mph 1007.3mb 39f
Qui 04/23 11:54 11 21 mph 1007.3mb 39f
11:48 11 20 mph 1007.3mb 39f
11:42 9 16 mph 1007.3mb 39f
11:36 13 20 mph 1007.3mb 39f
11:30 10 16 mph 1007.3mb 39f
11:24 10 18 mph 1007.3mb 39f
11:18 11 20 mph 1007.3mb 39f
11:12 11 18 mph 1007.3mb 39f
11:06 11 21 mph 1007.3mb 39f
11:00 10 18 mph 1007.2mb 39f
10:54 10 17 mph 1007.2mb 40f
10:48 13 18 mph 1007.2mb 40f
10:42 8 15 mph 1007.2mb 40f
10:36 10 18 mph 1007.3mb 40f
10:30 11 18 mph 1007.2mb 40f
10:24 10 17 mph 1007.2mb 40f
10:18 11 20 mph 1007.1mb 40f
10:12 11 22 mph 1007.1mb 40f
10:06 11 26 mph 1007.1mb 41f
10:00 9 21 mph 1007mb 41f
9:54 8 18 mph 1007.1mb 41f
9:48 9 18 mph 1007mb 41f
9:42 9 20 mph 1006.9mb 42f
9:36 8 17 mph 1006.9mb 42f
9:30 8 18 mph 1006.8mb 42f
9:24 10 21 mph 1006.8mb 42f
9:18 6 9 mph 1006.8mb 42f
9:12 6 11 mph 1006.7mb 42f
9:06 7 16 mph 1006.6mb 42f
9:00 7 14 mph 1006.5mb 42f
8:54 9 23 mph 1006.5mb 42f
8:48 6 10 mph 1006.5mb 42f
8:42 6 16 mph 1006.4mb 43f
8:36 9 18 mph 1006.3mb 43f
8:30 6 11 mph 1006.2mb 43f
8:24 9 17 mph 1006.2mb 43f
8:18 9 20 mph 1006.1mb 43f
8:12 9 15 mph 1006.1mb 43f
8:06 10 20 mph 1006mb 43f
8:00 9 17 mph 1005.9mb 43f
7:54 9 17 mph 1005.8mb 43f
7:48 8 15 mph 1005.8mb 43f
7:42 8 14 mph 1005.8mb 43f
7:36 9 17 mph 1005.8mb 44f
7:30 10 20 mph 1005.8mb 43f
7:24 14 22 mph 1005.7mb 43f
7:18 14 24 mph 1005.6mb 43f
7:12 16 32 mph 1005.4mb 44f
7:06 15 25 mph 1005.3mb 46f
7:00 13 23 mph 1005mb 46f
6:54 13 21 mph 1005mb 46f
6:48 11 17 mph 1004.9mb 46f
6:42 11 20 mph 1004.7mb 47f
6:36 9 17 mph 1004.7mb 47f
6:30 13 22 mph 1004.6mb 47f
6:24 11 18 mph 1004.5mb 47f
6:18 9 17 mph 1004.4mb 47f
6:12 11 18 mph 1004.4mb 47f
6:06 9 18 mph 1004.3mb 47f
6:00 7 13 mph 1004.3mb 48f
5:54 8 14 mph 1004.3mb 48f
5:48 10 17 mph 1004.2mb 48f
5:42 9 16 mph 1004.2mb 48f
5:36 9 16 mph 1004.2mb 48f
5:30 2 7 mph 1004.1mb 47f
5:24 2 5 mph 1004.1mb 47f